sensor_id;sensor_type;location;lat;lon;timestamp;P1;durP1;ratioP1;P2;durP2;ratioP2
12451;SDS011;6291;48.924;12.204;2023-02-28T00:00:50;3.60;;;1.83;;
12451;SDS011;6291;48.924;12.204;2023-02-28T00:05:54;2.07;;;1.83;;
12451;SDS011;6291;48.924;12.204;2023-02-28T00:11:01;3.03;;;1.90;;
12451;SDS011;6291;48.924;12.204;2023-02-28T00:16:05;1.90;;;1.70;;
12451;SDS011;6291;48.924;12.204;2023-02-28T00:21:11;3.73;;;1.87;;
12451;SDS011;6291;48.924;12.204;2023-02-28T00:26:16;1.67;;;1.43;;
12451;SDS011;6291;48.924;12.204;2023-02-28T00:31:23;2.90;;;1.53;;
12451;SDS011;6291;48.924;12.204;2023-02-28T00:36:27;2.00;;;1.57;;
12451;SDS011;6291;48.924;12.204;2023-02-28T00:41:31;1.67;;;1.53;;
12451;SDS011;6291;48.924;12.204;2023-02-28T00:46:34;2.10;;;1.60;;
12451;SDS011;6291;48.924;12.204;2023-02-28T00:51:38;2.53;;;1.87;;
12451;SDS011;6291;48.924;12.204;2023-02-28T00:56:43;2.37;;;1.90;;
12451;SDS011;6291;48.924;12.204;2023-02-28T01:01:47;2.17;;;1.40;;
12451;SDS011;6291;48.924;12.204;2023-02-28T01:06:51;2.13;;;1.73;;
12451;SDS011;6291;48.924;12.204;2023-02-28T01:11:55;1.83;;;1.60;;
12451;SDS011;6291;48.924;12.204;2023-02-28T01:16:58;1.70;;;1.20;;
12451;SDS011;6291;48.924;12.204;2023-02-28T01:22:02;2.20;;;1.77;;
12451;SDS011;6291;48.924;12.204;2023-02-28T01:27:07;2.70;;;1.90;;
12451;SDS011;6291;48.924;12.204;2023-02-28T01:32:11;1.50;;;1.13;;
12451;SDS011;6291;48.924;12.204;2023-02-28T01:37:14;3.03;;;2.00;;
12451;SDS011;6291;48.924;12.204;2023-02-28T01:42:19;3.40;;;1.70;;
12451;SDS011;6291;48.924;12.204;2023-02-28T01:47:22;2.80;;;1.90;;
12451;SDS011;6291;48.924;12.204;2023-02-28T01:52:30;2.47;;;1.80;;
12451;SDS011;6291;48.924;12.204;2023-02-28T01:57:36;3.43;;;2.60;;
12451;SDS011;6291;48.924;12.204;2023-02-28T02:02:44;1.87;;;1.50;;
12451;SDS011;6291;48.924;12.204;2023-02-28T02:07:52;4.23;;;2.17;;
12451;SDS011;6291;48.924;12.204;2023-02-28T02:13:03;2.73;;;2.03;;
12451;SDS011;6291;48.924;12.204;2023-02-28T02:18:18;4.90;;;2.67;;
12451;SDS011;6291;48.924;12.204;2023-02-28T02:29:45;2.37;;;1.77;;
12451;SDS011;6291;48.924;12.204;2023-02-28T02:35:10;5.80;;;2.37;;
12451;SDS011;6291;48.924;12.204;2023-02-28T02:40:17;2.60;;;1.93;;
12451;SDS011;6291;48.924;12.204;2023-02-28T02:45:24;3.30;;;2.27;;
12451;SDS011;6291;48.924;12.204;2023-02-28T02:50:31;2.43;;;2.10;;
12451;SDS011;6291;48.924;12.204;2023-02-28T02:55:40;3.90;;;2.20;;
12451;SDS011;6291;48.924;12.204;2023-02-28T03:00:47;4.63;;;2.47;;
12451;SDS011;6291;48.924;12.204;2023-02-28T03:05:56;4.47;;;3.03;;
12451;SDS011;6291;48.924;12.204;2023-02-28T03:11:01;1.73;;;1.60;;
12451;SDS011;6291;48.924;12.204;2023-02-28T03:16:13;3.50;;;1.90;;
12451;SDS011;6291;48.924;12.204;2023-02-28T03:21:32;3.37;;;2.50;;
12451;SDS011;6291;48.924;12.204;2023-02-28T03:26:40;3.10;;;1.70;;
12451;SDS011;6291;48.924;12.204;2023-02-28T03:31:48;4.90;;;2.17;;
12451;SDS011;6291;48.924;12.204;2023-02-28T03:36:57;2.97;;;2.10;;
12451;SDS011;6291;48.924;12.204;2023-02-28T03:42:05;7.23;;;2.57;;
12451;SDS011;6291;48.924;12.204;2023-02-28T03:47:12;5.37;;;2.60;;
12451;SDS011;6291;48.924;12.204;2023-02-28T03:52:21;4.77;;;2.23;;
12451;SDS011;6291;48.924;12.204;2023-02-28T03:57:32;4.53;;;2.20;;
12451;SDS011;6291;48.924;12.204;2023-02-28T04:02:39;2.67;;;2.37;;
12451;SDS011;6291;48.924;12.204;2023-02-28T04:07:44;3.73;;;2.60;;
12451;SDS011;6291;48.924;12.204;2023-02-28T04:12:47;3.40;;;2.50;;
12451;SDS011;6291;48.924;12.204;2023-02-28T04:17:50;2.30;;;1.73;;
12451;SDS011;6291;48.924;12.204;2023-02-28T04:22:55;4.27;;;2.70;;
12451;SDS011;6291;48.924;12.204;2023-02-28T04:27:59;3.67;;;2.73;;
12451;SDS011;6291;48.924;12.204;2023-02-28T04:33:02;4.93;;;2.57;;
12451;SDS011;6291;48.924;12.204;2023-02-28T04:38:07;3.43;;;2.33;;
12451;SDS011;6291;48.924;12.204;2023-02-28T04:43:10;5.00;;;3.10;;
12451;SDS011;6291;48.924;12.204;2023-02-28T04:48:13;2.30;;;1.73;;
12451;SDS011;6291;48.924;12.204;2023-02-28T04:53:18;6.43;;;3.23;;
12451;SDS011;6291;48.924;12.204;2023-02-28T04:58:22;3.17;;;2.87;;
12451;SDS011;6291;48.924;12.204;2023-02-28T05:03:26;6.10;;;3.03;;
12451;SDS011;6291;48.924;12.204;2023-02-28T05:08:30;8.47;;;3.60;;
12451;SDS011;6291;48.924;12.204;2023-02-28T05:13:34;5.97;;;3.17;;
12451;SDS011;6291;48.924;12.204;2023-02-28T05:18:37;1.90;;;1.70;;
12451;SDS011;6291;48.924;12.204;2023-02-28T05:23:42;4.50;;;2.93;;
12451;SDS011;6291;48.924;12.204;2023-02-28T05:28:47;3.43;;;2.73;;
12451;SDS011;6291;48.924;12.204;2023-02-28T05:33:51;7.87;;;2.97;;
12451;SDS011;6291;48.924;12.204;2023-02-28T05:38:55;4.43;;;3.00;;
12451;SDS011;6291;48.924;12.204;2023-02-28T05:43:59;4.20;;;2.83;;
12451;SDS011;6291;48.924;12.204;2023-02-28T05:49:02;3.40;;;2.80;;
12451;SDS011;6291;48.924;12.204;2023-02-28T05:54:07;5.33;;;3.33;;
12451;SDS011;6291;48.924;12.204;2023-02-28T05:59:14;5.00;;;2.50;;
12451;SDS011;6291;48.924;12.204;2023-02-28T06:04:18;3.93;;;2.57;;
12451;SDS011;6291;48.924;12.204;2023-02-28T06:09:33;4.50;;;2.70;;
12451;SDS011;6291;48.924;12.204;2023-02-28T06:14:37;5.17;;;3.27;;
12451;SDS011;6291;48.924;12.204;2023-02-28T06:19:40;5.97;;;3.10;;
12451;SDS011;6291;48.924;12.204;2023-02-28T06:24:45;11.25;;;8.15;;
12451;SDS011;6291;48.924;12.204;2023-02-28T06:29:49;9.07;;;7.50;;
12451;SDS011;6291;48.924;12.204;2023-02-28T06:34:56;6.23;;;4.10;;
12451;SDS011;6291;48.924;12.204;2023-02-28T06:40:00;5.23;;;3.53;;
12451;SDS011;6291;48.924;12.204;2023-02-28T06:45:07;4.77;;;3.40;;
12451;SDS011;6291;48.924;12.204;2023-02-28T06:50:12;6.87;;;3.40;;
12451;SDS011;6291;48.924;12.204;2023-02-28T06:55:17;4.70;;;3.20;;
12451;SDS011;6291;48.924;12.204;2023-02-28T07:00:20;5.47;;;3.47;;
12451;SDS011;6291;48.924;12.204;2023-02-28T07:05:25;6.83;;;3.57;;
12451;SDS011;6291;48.924;12.204;2023-02-28T07:10:30;4.57;;;3.33;;
12451;SDS011;6291;48.924;12.204;2023-02-28T07:15:34;4.57;;;3.37;;
12451;SDS011;6291;48.924;12.204;2023-02-28T07:20:42;5.20;;;3.13;;
12451;SDS011;6291;48.924;12.204;2023-02-28T07:25:46;4.77;;;3.27;;
12451;SDS011;6291;48.924;12.204;2023-02-28T07:30:50;6.73;;;3.80;;
12451;SDS011;6291;48.924;12.204;2023-02-28T07:35:59;5.50;;;3.17;;
12451;SDS011;6291;48.924;12.204;2023-02-28T07:41:05;5.03;;;3.47;;
12451;SDS011;6291;48.924;12.204;2023-02-28T07:46:10;5.80;;;3.30;;
12451;SDS011;6291;48.924;12.204;2023-02-28T07:51:16;6.90;;;4.00;;
12451;SDS011;6291;48.924;12.204;2023-02-28T07:56:21;3.67;;;2.97;;
12451;SDS011;6291;48.924;12.204;2023-02-28T08:01:24;5.43;;;3.35;;
12451;SDS011;6291;48.924;12.204;2023-02-28T08:06:28;6.50;;;3.63;;
12451;SDS011;6291;48.924;12.204;2023-02-28T08:11:32;4.55;;;3.20;;
12451;SDS011;6291;48.924;12.204;2023-02-28T08:16:36;5.80;;;3.75;;
12451;SDS011;6291;48.924;12.204;2023-02-28T08:21:40;4.95;;;3.25;;
12451;SDS011;6291;48.924;12.204;2023-02-28T08:26:44;5.93;;;3.92;;
12451;SDS011;6291;48.924;12.204;2023-02-28T08:31:48;6.68;;;4.47;;
12451;SDS011;6291;48.924;12.204;2023-02-28T08:36:51;4.45;;;3.50;;
12451;SDS011;6291;48.924;12.204;2023-02-28T08:41:56;5.43;;;3.92;;
12451;SDS011;6291;48.924;12.204;2023-02-28T08:47:08;5.95;;;3.67;;
12451;SDS011;6291;48.924;12.204;2023-02-28T08:52:11;7.13;;;4.65;;
12451;SDS011;6291;48.924;12.204;2023-02-28T08:57:15;7.63;;;4.35;;
12451;SDS011;6291;48.924;12.204;2023-02-28T09:02:19;5.13;;;4.10;;
12451;SDS011;6291;48.924;12.204;2023-02-28T09:07:22;6.45;;;4.10;;
12451;SDS011;6291;48.924;12.204;2023-02-28T09:12:27;7.00;;;4.30;;
12451;SDS011;6291;48.924;12.204;2023-02-28T09:17:34;6.38;;;4.07;;
12451;SDS011;6291;48.924;12.204;2023-02-28T09:22:38;5.30;;;4.00;;
12451;SDS011;6291;48.924;12.204;2023-02-28T09:27:42;6.35;;;4.43;;
12451;SDS011;6291;48.924;12.204;2023-02-28T09:32:46;6.75;;;4.93;;
12451;SDS011;6291;48.924;12.204;2023-02-28T09:37:53;9.88;;;4.60;;
12451;SDS011;6291;48.924;12.204;2023-02-28T09:42:58;5.45;;;4.38;;
12451;SDS011;6291;48.924;12.204;2023-02-28T09:48:03;5.20;;;4.20;;
12451;SDS011;6291;48.924;12.204;2023-02-28T09:53:13;5.68;;;4.43;;
12451;SDS011;6291;48.924;12.204;2023-02-28T09:58:26;5.65;;;4.47;;
12451;SDS011;6291;48.924;12.204;2023-02-28T10:03:34;5.80;;;4.90;;
12451;SDS011;6291;48.924;12.204;2023-02-28T10:08:42;6.18;;;5.10;;
12451;SDS011;6291;48.924;12.204;2023-02-28T10:13:59;6.35;;;4.57;;
12451;SDS011;6291;48.924;12.204;2023-02-28T10:19:10;7.10;;;4.80;;
12451;SDS011;6291;48.924;12.204;2023-02-28T10:24:19;5.88;;;5.15;;
12451;SDS011;6291;48.924;12.204;2023-02-28T10:29:27;5.47;;;4.90;;
12451;SDS011;6291;48.924;12.204;2023-02-28T10:34:34;5.57;;;5.00;;
12451;SDS011;6291;48.924;12.204;2023-02-28T10:39:38;5.70;;;4.78;;
12451;SDS011;6291;48.924;12.204;2023-02-28T10:44:44;5.53;;;4.93;;
12451;SDS011;6291;48.924;12.204;2023-02-28T10:49:47;6.95;;;5.25;;
12451;SDS011;6291;48.924;12.204;2023-02-28T10:54:53;5.95;;;4.85;;
12451;SDS011;6291;48.924;12.204;2023-02-28T11:00:20;5.05;;;4.55;;
12451;SDS011;6291;48.924;12.204;2023-02-28T11:05:27;6.65;;;4.90;;
12451;SDS011;6291;48.924;12.204;2023-02-28T11:10:32;6.10;;;4.70;;
12451;SDS011;6291;48.924;12.204;2023-02-28T11:15:37;5.75;;;4.70;;
12451;SDS011;6291;48.924;12.204;2023-02-28T11:20:41;5.82;;;4.38;;
12451;SDS011;6291;48.924;12.204;2023-02-28T11:25:51;5.00;;;4.50;;
12451;SDS011;6291;48.924;12.204;2023-02-28T11:31:04;5.07;;;4.53;;
12451;SDS011;6291;48.924;12.204;2023-02-28T11:36:18;4.85;;;4.45;;
12451;SDS011;6291;48.924;12.204;2023-02-28T11:41:30;5.35;;;4.82;;
12451;SDS011;6291;48.924;12.204;2023-02-28T11:46:43;7.15;;;4.57;;
12451;SDS011;6291;48.924;12.204;2023-02-28T11:51:53;5.15;;;4.00;;
12451;SDS011;6291;48.924;12.204;2023-02-28T11:57:03;5.05;;;4.45;;
12451;SDS011;6291;48.924;12.204;2023-02-28T12:02:26;7.82;;;5.45;;
12451;SDS011;6291;48.924;12.204;2023-02-28T12:07:37;7.00;;;5.57;;
12451;SDS011;6291;48.924;12.204;2023-02-28T12:12:53;5.72;;;5.00;;
12451;SDS011;6291;48.924;12.204;2023-02-28T12:18:13;6.53;;;5.45;;
12451;SDS011;6291;48.924;12.204;2023-02-28T12:23:39;6.03;;;5.40;;
12451;SDS011;6291;48.924;12.204;2023-02-28T12:28:53;6.82;;;5.10;;
12451;SDS011;6291;48.924;12.204;2023-02-28T12:34:03;6.28;;;5.25;;
12451;SDS011;6291;48.924;12.204;2023-02-28T12:39:11;5.78;;;5.03;;
12451;SDS011;6291;48.924;12.204;2023-02-28T12:44:20;5.40;;;4.90;;
12451;SDS011;6291;48.924;12.204;2023-02-28T12:49:33;6.80;;;5.07;;
12451;SDS011;6291;48.924;12.204;2023-02-28T12:54:42;6.80;;;6.10;;
12451;SDS011;6291;48.924;12.204;2023-02-28T12:59:50;6.88;;;5.55;;
12451;SDS011;6291;48.924;12.204;2023-02-28T13:05:00;6.47;;;5.45;;
12451;SDS011;6291;48.924;12.204;2023-02-28T13:10:22;7.00;;;5.80;;
12451;SDS011;6291;48.924;12.204;2023-02-28T13:15:26;6.82;;;5.38;;
12451;SDS011;6291;48.924;12.204;2023-02-28T13:20:33;7.22;;;4.80;;
12451;SDS011;6291;48.924;12.204;2023-02-28T13:31:03;6.22;;;5.20;;
12451;SDS011;6291;48.924;12.204;2023-02-28T13:36:10;5.93;;;5.32;;
12451;SDS011;6291;48.924;12.204;2023-02-28T13:41:48;6.72;;;5.80;;
12451;SDS011;6291;48.924;12.204;2023-02-28T13:52:24;6.72;;;5.95;;
12451;SDS011;6291;48.924;12.204;2023-02-28T13:57:31;6.07;;;5.47;;
12451;SDS011;6291;48.924;12.204;2023-02-28T14:02:48;6.05;;;5.43;;
12451;SDS011;6291;48.924;12.204;2023-02-28T14:08:10;7.30;;;5.75;;
12451;SDS011;6291;48.924;12.204;2023-02-28T14:18:48;6.53;;;5.80;;
12451;SDS011;6291;48.924;12.204;2023-02-28T14:24:09;7.93;;;5.72;;
12451;SDS011;6291;48.924;12.204;2023-02-28T14:29:30;6.68;;;5.88;;
12451;SDS011;6291;48.924;12.204;2023-02-28T14:34:45;5.78;;;5.07;;
12451;SDS011;6291;48.924;12.204;2023-02-28T14:39:56;6.68;;;5.82;;
12451;SDS011;6291;48.924;12.204;2023-02-28T14:45:00;8.60;;;6.15;;
12451;SDS011;6291;48.924;12.204;2023-02-28T14:50:04;6.13;;;5.55;;
12451;SDS011;6291;48.924;12.204;2023-02-28T14:55:12;7.90;;;5.95;;
12451;SDS011;6291;48.924;12.204;2023-02-28T15:00:21;7.72;;;6.05;;
12451;SDS011;6291;48.924;12.204;2023-02-28T15:05:27;7.85;;;5.97;;
12451;SDS011;6291;48.924;12.204;2023-02-28T15:10:33;9.10;;;6.47;;
12451;SDS011;6291;48.924;12.204;2023-02-28T15:15:41;9.07;;;6.40;;
12451;SDS011;6291;48.924;12.204;2023-02-28T15:21:05;6.05;;;4.88;;
12451;SDS011;6291;48.924;12.204;2023-02-28T15:26:15;8.40;;;5.43;;
12451;SDS011;6291;48.924;12.204;2023-02-28T15:31:23;12.63;;;8.70;;
12451;SDS011;6291;48.924;12.204;2023-02-28T15:36:39;8.52;;;6.53;;
12451;SDS011;6291;48.924;12.204;2023-02-28T15:41:44;8.45;;;5.50;;
12451;SDS011;6291;48.924;12.204;2023-02-28T17:58:51;12.47;;;6.50;;
12451;SDS011;6291;48.924;12.204;2023-02-28T18:03:55;11.77;;;6.87;;
12451;SDS011;6291;48.924;12.204;2023-02-28T18:08:59;10.50;;;6.23;;
12451;SDS011;6291;48.924;12.204;2023-02-28T18:14:04;9.60;;;6.63;;
12451;SDS011;6291;48.924;12.204;2023-02-28T18:19:07;10.40;;;6.57;;
12451;SDS011;6291;48.924;12.204;2023-02-28T18:24:15;11.87;;;7.10;;
12451;SDS011;6291;48.924;12.204;2023-02-28T18:29:21;15.17;;;7.47;;
12451;SDS011;6291;48.924;12.204;2023-02-28T18:34:26;12.37;;;7.87;;
12451;SDS011;6291;48.924;12.204;2023-02-28T18:39:31;9.03;;;6.57;;
12451;SDS011;6291;48.924;12.204;2023-02-28T18:44:36;12.87;;;7.10;;
12451;SDS011;6291;48.924;12.204;2023-02-28T18:49:40;10.97;;;7.23;;
12451;SDS011;6291;48.924;12.204;2023-02-28T18:54:44;15.17;;;7.03;;
12451;SDS011;6291;48.924;12.204;2023-02-28T18:59:49;13.50;;;6.53;;
12451;SDS011;6291;48.924;12.204;2023-02-28T19:04:52;13.67;;;7.23;;
12451;SDS011;6291;48.924;12.204;2023-02-28T19:09:55;13.40;;;8.27;;
12451;SDS011;6291;48.924;12.204;2023-02-28T19:15:00;10.30;;;6.97;;
12451;SDS011;6291;48.924;12.204;2023-02-28T19:20:04;12.63;;;7.40;;
12451;SDS011;6291;48.924;12.204;2023-02-28T19:25:09;13.27;;;6.87;;
12451;SDS011;6291;48.924;12.204;2023-02-28T19:30:14;15.67;;;7.63;;
12451;SDS011;6291;48.924;12.204;2023-02-28T19:35:17;12.10;;;7.83;;
12451;SDS011;6291;48.924;12.204;2023-02-28T19:40:20;12.63;;;7.10;;
12451;SDS011;6291;48.924;12.204;2023-02-28T19:45:25;11.77;;;6.57;;
12451;SDS011;6291;48.924;12.204;2023-02-28T19:50:29;11.63;;;6.97;;
12451;SDS011;6291;48.924;12.204;2023-02-28T19:55:33;11.40;;;7.10;;
12451;SDS011;6291;48.924;12.204;2023-02-28T20:00:37;12.40;;;7.27;;
12451;SDS011;6291;48.924;12.204;2023-02-28T20:05:42;13.90;;;7.23;;
12451;SDS011;6291;48.924;12.204;2023-02-28T20:10:45;13.33;;;7.57;;
12451;SDS011;6291;48.924;12.204;2023-02-28T20:15:50;15.13;;;7.50;;
12451;SDS011;6291;48.924;12.204;2023-02-28T20:20:53;14.30;;;7.53;;
12451;SDS011;6291;48.924;12.204;2023-02-28T20:25:57;12.40;;;7.63;;
12451;SDS011;6291;48.924;12.204;2023-02-28T20:31:08;16.17;;;8.57;;
12451;SDS011;6291;48.924;12.204;2023-02-28T20:36:13;14.03;;;6.97;;
12451;SDS011;6291;48.924;12.204;2023-02-28T20:41:17;13.83;;;7.03;;
12451;SDS011;6291;48.924;12.204;2023-02-28T20:46:22;15.23;;;8.17;;
12451;SDS011;6291;48.924;12.204;2023-02-28T20:51:26;16.77;;;8.70;;
12451;SDS011;6291;48.924;12.204;2023-02-28T20:56:29;14.40;;;8.37;;
12451;SDS011;6291;48.924;12.204;2023-02-28T21:01:33;15.37;;;8.63;;
12451;SDS011;6291;48.924;12.204;2023-02-28T21:06:38;12.53;;;7.83;;
12451;SDS011;6291;48.924;12.204;2023-02-28T21:11:43;14.77;;;7.63;;
12451;SDS011;6291;48.924;12.204;2023-02-28T21:16:48;17.30;;;10.17;;
12451;SDS011;6291;48.924;12.204;2023-02-28T21:21:52;16.93;;;9.23;;
12451;SDS011;6291;48.924;12.204;2023-02-28T21:26:56;17.73;;;10.40;;
12451;SDS011;6291;48.924;12.204;2023-02-28T21:32:03;16.73;;;9.70;;
12451;SDS011;6291;48.924;12.204;2023-02-28T21:37:09;15.13;;;10.13;;
12451;SDS011;6291;48.924;12.204;2023-02-28T21:42:13;16.63;;;9.67;;
12451;SDS011;6291;48.924;12.204;2023-02-28T21:47:19;14.63;;;9.23;;
12451;SDS011;6291;48.924;12.204;2023-02-28T21:52:22;14.67;;;8.63;;
12451;SDS011;6291;48.924;12.204;2023-02-28T21:57:25;14.60;;;7.73;;
12451;SDS011;6291;48.924;12.204;2023-02-28T22:02:30;14.13;;;8.87;;
12451;SDS011;6291;48.924;12.204;2023-02-28T22:07:34;12.33;;;7.60;;
12451;SDS011;6291;48.924;12.204;2023-02-28T22:12:37;13.93;;;8.97;;
12451;SDS011;6291;48.924;12.204;2023-02-28T22:17:41;11.90;;;7.90;;
12451;SDS011;6291;48.924;12.204;2023-02-28T22:22:45;15.40;;;8.90;;
12451;SDS011;6291;48.924;12.204;2023-02-28T22:27:48;15.43;;;7.93;;
12451;SDS011;6291;48.924;12.204;2023-02-28T22:32:53;15.33;;;8.53;;
12451;SDS011;6291;48.924;12.204;2023-02-28T22:37:56;14.57;;;8.67;;
12451;SDS011;6291;48.924;12.204;2023-02-28T22:42:59;12.97;;;8.27;;
12451;SDS011;6291;48.924;12.204;2023-02-28T22:48:05;14.80;;;8.57;;
12451;SDS011;6291;48.924;12.204;2023-02-28T22:53:11;13.80;;;8.23;;
12451;SDS011;6291;48.924;12.204;2023-02-28T22:58:15;12.53;;;8.00;;
12451;SDS011;6291;48.924;12.204;2023-02-28T23:03:20;16.53;;;9.60;;
12451;SDS011;6291;48.924;12.204;2023-02-28T23:08:27;11.23;;;7.87;;
12451;SDS011;6291;48.924;12.204;2023-02-28T23:13:32;13.50;;;7.40;;
12451;SDS011;6291;48.924;12.204;2023-02-28T23:18:37;14.33;;;7.83;;
12451;SDS011;6291;48.924;12.204;2023-02-28T23:23:41;12.97;;;8.43;;
12451;SDS011;6291;48.924;12.204;2023-02-28T23:28:44;13.00;;;7.43;;
12451;SDS011;6291;48.924;12.204;2023-02-28T23:33:49;10.90;;;7.20;;
12451;SDS011;6291;48.924;12.204;2023-02-28T23:38:52;13.30;;;7.37;;
12451;SDS011;6291;48.924;12.204;2023-02-28T23:43:56;11.63;;;7.17;;
12451;SDS011;6291;48.924;12.204;2023-02-28T23:49:00;12.30;;;7.73;;
12451;SDS011;6291;48.924;12.204;2023-02-28T23:54:04;13.43;;;7.60;;
12451;SDS011;6291;48.924;12.204;2023-02-28T23:59:07;12.87;;;6.83;;
